Time;durP1;ratioP1;P1;durP2;ratioP2;P2;SDS_P1;SDS_P2;PMS_P1;PMS_P2;Temp;Humidity;BMP_temperature;BMP_pressure;BME280_temperature;BME280_humidity;BME280_pressure;Samples;Min_cycle;Max_cycle;Signal;HPM_P1;HPM_P2
2023/07/22 00:01:00;;;;;;;8.98;4.32;;;12.90;99.90;;;;;;4995404;28;20035;-52
2023/07/22 00:03:26;;;;;;;10.30;4.72;;;12.90;99.90;;;;;;4995088;28;20050;-54
2023/07/22 00:06:12;;;;;;;11.27;4.90;;;12.90;99.90;;;;;;4994053;28;20062;-52
2023/07/22 00:08:38;;;;;;;9.05;4.50;;;12.90;99.90;;;;;;4995579;28;20045;-51
2023/07/22 00:11:05;;;;;;;11.02;4.70;;;13.00;99.90;;;;;;4995051;28;20485;-52
2023/07/22 00:13:32;;;;;;;9.93;4.60;;;13.10;99.90;;;;;;4994690;28;20117;-53
2023/07/22 00:15:59;;;;;;;9.95;4.78;;;13.10;99.90;;;;;;4994800;28;20093;-50
2023/07/22 00:18:27;;;;;;;8.68;4.40;;;13.20;99.90;;;;;;4993657;28;20113;-53
2023/07/22 00:20:53;;;;;;;9.63;4.13;;;13.20;99.90;;;;;;4994732;28;20096;-53
2023/07/22 00:23:19;;;;;;;10.43;4.40;;;13.30;99.90;;;;;;4994088;28;20040;-49
2023/07/22 00:25:48;;;;;;;8.02;4.38;;;13.30;99.90;;;;;;4994776;28;20023;-53
2023/07/22 00:28:14;;;;;;;10.70;4.20;;;13.30;99.90;;;;;;4994776;28;20029;-52
2023/07/22 00:30:41;;;;;;;8.38;4.43;;;13.30;99.90;;;;;;4994692;28;20037;-52
2023/07/22 00:33:07;;;;;;;8.55;4.35;;;13.50;99.90;;;;;;4994320;28;20038;-51
2023/07/22 00:35:33;;;;;;;9.13;4.05;;;13.60;99.90;;;;;;4993586;28;20045;-53
2023/07/22 00:38:00;;;;;;;8.82;3.95;;;13.70;99.90;;;;;;4994448;28;20037;-52
2023/07/22 00:40:25;;;;;;;8.70;4.25;;;13.70;99.90;;;;;;4993192;28;20034;-52
2023/07/22 00:42:51;;;;;;;9.82;4.65;;;13.70;99.90;;;;;;4992520;28;20045;-53
2023/07/22 00:45:17;;;;;;;7.38;4.18;;;13.70;99.90;;;;;;4993220;28;20026;-51
2023/07/22 00:47:44;;;;;;;9.75;4.43;;;13.80;99.90;;;;;;4993230;28;20406;-51
2023/07/22 00:50:10;;;;;;;8.43;4.10;;;13.80;99.90;;;;;;4993279;28;20042;-53
2023/07/22 00:52:37;;;;;;;10.27;4.75;;;13.90;99.90;;;;;;4992980;28;20030;-52
2023/07/22 00:55:04;;;;;;;9.00;4.13;;;13.90;99.90;;;;;;4992940;28;20042;-50
2023/07/22 00:57:30;;;;;;;8.23;4.00;;;13.90;99.90;;;;;;4994582;28;20468;-52
2023/07/22 00:59:56;;;;;;;8.38;4.50;;;13.90;99.90;;;;;;4993099;28;20125;-53
2023/07/22 01:02:23;;;;;;;11.02;4.05;;;14.00;99.90;;;;;;4994106;28;20063;-54
2023/07/22 01:04:50;;;;;;;8.52;4.25;;;14.00;99.90;;;;;;4992886;28;20080;-52
2023/07/22 01:07:16;;;;;;;7.95;4.25;;;14.00;99.90;;;;;;4993629;28;20387;-52
2023/07/22 01:09:43;;;;;;;11.25;4.82;;;14.00;99.90;;;;;;4992845;28;20144;-52
2023/07/22 01:12:09;;;;;;;8.35;4.00;;;14.00;99.90;;;;;;4994290;28;20414;-53
2023/07/22 01:14:41;;;;;;;8.88;4.47;;;14.00;99.90;;;;;;4993947;28;20108;-52
2023/07/22 01:17:09;;;;;;;9.23;3.75;;;14.00;99.90;;;;;;4992859;28;20117;-52
2023/07/22 01:19:35;;;;;;;7.82;3.78;;;14.00;99.90;;;;;;4992727;28;20443;-53
2023/07/22 01:22:03;;;;;;;9.70;4.22;;;14.00;99.90;;;;;;4993962;28;20434;-51
2023/07/22 01:24:29;;;;;;;9.93;4.78;;;14.10;99.90;;;;;;4976580;28;20037;-53
2023/07/22 01:26:55;;;;;;;14.07;4.30;;;14.10;99.90;;;;;;4992962;28;20368;-52
2023/07/22 01:29:22;;;;;;;7.18;3.60;;;14.10;99.90;;;;;;4991994;28;20041;-50
2023/07/22 01:31:50;;;;;;;8.27;4.13;;;14.10;99.90;;;;;;4993744;28;20034;-51
2023/07/22 01:34:16;;;;;;;9.17;4.77;;;14.10;99.90;;;;;;4992360;28;20030;-50
2023/07/22 01:36:43;;;;;;;10.60;4.82;;;14.10;99.90;;;;;;4992428;28;20052;-53
2023/07/22 01:39:10;;;;;;;8.88;4.97;;;14.20;99.90;;;;;;4993804;28;20026;-51
2023/07/22 01:41:36;;;;;;;8.57;4.05;;;14.30;99.90;;;;;;4993895;28;20023;-52
2023/07/22 01:44:02;;;;;;;8.27;4.00;;;14.30;99.90;;;;;;4992302;28;20113;-52
2023/07/22 01:46:28;;;;;;;10.73;4.80;;;14.30;99.90;;;;;;4992780;28;20455;-52
2023/07/22 01:48:55;;;;;;;9.05;4.35;;;14.30;99.90;;;;;;4993695;28;20105;-50
2023/07/22 01:51:20;;;;;;;9.35;4.95;;;14.30;99.90;;;;;;4992416;28;20090;-50
2023/07/22 01:53:46;;;;;;;8.52;4.45;;;14.40;99.90;;;;;;4992857;28;20502;-52
2023/07/22 01:56:11;;;;;;;8.38;4.45;;;14.40;99.90;;;;;;4996660;28;20397;-53
2023/07/22 01:58:37;;;;;;;9.10;4.72;;;14.40;99.90;;;;;;4996656;28;20491;-51
2023/07/22 02:01:03;;;;;;;9.55;4.57;;;14.40;99.90;;;;;;4996043;28;20506;-53
2023/07/22 02:03:28;;;;;;;9.57;4.60;;;14.40;99.90;;;;;;4997046;28;20022;-52
2023/07/22 02:06:01;;;;;;;7.18;4.43;;;14.40;99.90;;;;;;4996419;28;20505;-52
2023/07/22 02:08:26;;;;;;;8.63;4.47;;;14.40;99.90;;;;;;4996163;28;20039;-50
2023/07/22 02:10:52;;;;;;;8.63;4.15;;;14.30;99.90;;;;;;4997208;28;20104;-49
2023/07/22 02:13:18;;;;;;;9.93;4.38;;;14.30;99.90;;;;;;4996802;28;20541;-48
2023/07/22 02:15:44;;;;;;;8.82;4.93;;;14.40;99.90;;;;;;4996514;28;20038;-49
2023/07/22 02:18:09;;;;;;;8.32;4.40;;;14.40;99.90;;;;;;4995333;28;20120;-53
2023/07/22 02:20:35;;;;;;;7.78;4.38;;;14.40;99.90;;;;;;4995710;28;20030;-52
2023/07/22 02:23:01;;;;;;;10.32;5.47;;;14.50;99.90;;;;;;4995735;28;20026;-51
2023/07/22 02:25:26;;;;;;;11.10;4.70;;;14.50;99.90;;;;;;4997242;28;20018;-53
2023/07/22 02:27:52;;;;;;;8.18;4.07;;;14.60;99.90;;;;;;4997345;28;20036;-52
2023/07/22 02:30:17;;;;;;;12.30;4.15;;;14.60;99.90;;;;;;4995980;28;20041;-49
2023/07/22 02:32:43;;;;;;;10.50;4.28;;;14.70;99.90;;;;;;4994955;28;20085;-52
2023/07/22 02:35:09;;;;;;;10.18;4.82;;;14.70;99.90;;;;;;4995832;28;20026;-52
2023/07/22 02:37:38;;;;;;;7.93;4.32;;;14.80;99.90;;;;;;4996828;28;20150;-50
2023/07/22 02:40:07;;;;;;;11.55;4.55;;;14.70;99.90;;;;;;4995477;28;20046;-53
2023/07/22 02:42:35;;;;;;;8.85;4.07;;;14.80;99.90;;;;;;4996614;28;20598;-53
2023/07/22 02:45:01;;;;;;;13.10;4.63;;;14.80;99.90;;;;;;4997234;28;20050;-55
2023/07/22 02:47:28;;;;;;;8.35;4.32;;;14.80;99.90;;;;;;4995596;28;20026;-52
2023/07/22 02:49:54;;;;;;;8.73;4.25;;;14.90;99.90;;;;;;4995571;28;20037;-53
2023/07/22 02:52:20;;;;;;;10.45;3.95;;;14.90;99.90;;;;;;4995244;28;20035;-50
2023/07/22 02:55:23;;;;;;;8.98;3.85;;;14.80;99.90;;;;;;4995478;28;20026;-51
2023/07/22 02:57:49;;;;;;;8.75;4.20;;;14.80;99.90;;;;;;4996963;28;20030;-53
2023/07/22 03:00:23;;;;;;;10.50;4.30;;;14.90;99.90;;;;;;4994978;28;20113;-54
2023/07/22 03:02:52;;;;;;;7.80;4.20;;;14.80;99.90;;;;;;4996447;28;20032;-52
2023/07/22 03:05:18;;;;;;;9.15;4.10;;;14.80;99.90;;;;;;4995162;28;20038;-50
2023/07/22 03:07:43;;;;;;;7.68;3.55;;;14.80;99.90;;;;;;4995499;28;20037;-51
2023/07/22 03:10:09;;;;;;;9.20;3.90;;;14.70;99.90;;;;;;4995083;28;20042;-52
2023/07/22 03:12:36;;;;;;;8.52;3.78;;;14.80;99.90;;;;;;4995688;28;20041;-53
2023/07/22 03:15:03;;;;;;;10.25;4.50;;;14.90;99.90;;;;;;4995128;28;20030;-50
2023/07/22 03:17:29;;;;;;;10.02;3.85;;;14.80;99.90;;;;;;4995406;28;20050;-53
2023/07/22 03:19:55;;;;;;;7.97;4.07;;;14.90;99.90;;;;;;4996347;28;20153;-53
2023/07/22 03:22:21;;;;;;;8.60;3.95;;;14.80;99.90;;;;;;4978615;28;20034;-48
2023/07/22 03:24:46;;;;;;;6.97;3.47;;;14.80;99.90;;;;;;4995026;28;20483;-50
2023/07/22 03:27:13;;;;;;;9.52;3.90;;;14.80;99.90;;;;;;4994757;28;20566;-52
2023/07/22 03:29:39;;;;;;;8.63;3.83;;;14.80;99.90;;;;;;4996404;28;20030;-52
2023/07/22 03:32:05;;;;;;;7.15;3.67;;;14.80;99.90;;;;;;4994496;28;20089;-51
2023/07/22 03:34:31;;;;;;;9.23;4.10;;;14.80;99.90;;;;;;4994485;28;20042;-52
2023/07/22 03:36:58;;;;;;;11.70;4.57;;;14.80;99.90;;;;;;4994046;28;20038;-50
2023/07/22 03:39:24;;;;;;;10.73;4.32;;;14.90;99.90;;;;;;4995610;28;20443;-52
2023/07/22 03:41:50;;;;;;;8.38;3.92;;;14.90;99.90;;;;;;4995601;28;20046;-54
2023/07/22 03:44:15;;;;;;;7.97;3.88;;;14.80;99.90;;;;;;4994514;28;20030;-53
2023/07/22 03:46:41;;;;;;;9.55;4.15;;;14.90;99.90;;;;;;4994110;28;20057;-50
2023/07/22 03:49:07;;;;;;;9.75;4.15;;;14.90;99.90;;;;;;4995690;28;20022;-53
2023/07/22 03:51:33;;;;;;;8.10;3.80;;;14.80;99.90;;;;;;4995358;28;20395;-53
2023/07/22 03:53:59;;;;;;;8.57;4.07;;;14.90;99.90;;;;;;4995136;28;20031;-52
2023/07/22 03:56:25;;;;;;;7.75;3.65;;;14.90;99.90;;;;;;4995539;28;20060;-52
2023/07/22 03:58:51;;;;;;;8.70;3.95;;;14.90;99.90;;;;;;4994905;28;20030;-54
2023/07/22 04:01:17;;;;;;;7.15;3.28;;;14.90;99.90;;;;;;4993841;28;20042;-53
2023/07/22 04:03:43;;;;;;;8.27;4.10;;;14.90;99.90;;;;;;4993908;28;20030;-51
2023/07/22 04:06:09;;;;;;;9.82;3.50;;;14.80;99.90;;;;;;4994044;28;20041;-52
2023/07/22 04:08:34;;;;;;;6.68;3.58;;;14.80;99.90;;;;;;4994457;28;20125;-53
2023/07/22 04:11:00;;;;;;;7.53;3.50;;;14.80;99.90;;;;;;4994959;28;20101;-53
2023/07/22 04:13:26;;;;;;;10.18;4.00;;;14.80;99.90;;;;;;4993546;28;20129;-52
2023/07/22 04:15:52;;;;;;;6.95;3.35;;;14.80;99.90;;;;;;4994392;28;20297;-53
2023/07/22 04:18:20;;;;;;;10.45;3.53;;;14.90;99.90;;;;;;4994686;28;20030;-53
2023/07/22 04:20:49;;;;;;;8.52;3.45;;;14.90;99.90;;;;;;4977432;28;20038;-52
2023/07/22 04:23:15;;;;;;;7.47;3.50;;;14.90;99.90;;;;;;4993434;28;20121;-53
2023/07/22 04:25:41;;;;;;;6.60;3.53;;;14.90;99.90;;;;;;4993591;28;20058;-53
2023/07/22 04:28:08;;;;;;;8.27;3.88;;;14.90;99.90;;;;;;4994809;28;20050;-53
2023/07/22 04:30:34;;;;;;;7.97;3.60;;;14.90;99.90;;;;;;4993602;28;20487;-51
2023/07/22 04:33:00;;;;;;;9.40;3.45;;;14.90;99.90;;;;;;4992823;28;20030;-51
2023/07/22 04:35:26;;;;;;;6.80;3.35;;;14.90;99.90;;;;;;4993379;28;20297;-53
2023/07/22 04:37:51;;;;;;;9.30;3.83;;;14.80;99.90;;;;;;4993416;28;20402;-53
2023/07/22 04:40:18;;;;;;;7.82;3.50;;;14.90;99.90;;;;;;4994075;28;20031;-53
2023/07/22 04:42:44;;;;;;;8.93;3.88;;;14.90;99.90;;;;;;4993952;28;20035;-53
2023/07/22 04:45:11;;;;;;;6.70;3.53;;;14.90;99.90;;;;;;4994427;28;20027;-53
2023/07/22 04:47:39;;;;;;;8.48;3.70;;;14.90;99.90;;;;;;4993874;28;20085;-51
2023/07/22 04:50:09;;;;;;;6.82;3.40;;;15.00;99.90;;;;;;4994092;28;20034;-52
2023/07/22 04:52:38;;;;;;;9.10;3.80;;;14.90;99.90;;;;;;4993822;28;20038;-51
2023/07/22 04:55:08;;;;;;;9.93;3.50;;;15.00;99.90;;;;;;4993818;28;20034;-51
2023/07/22 04:57:35;;;;;;;8.85;3.38;;;15.10;99.90;;;;;;4994649;28;20113;-52
2023/07/22 05:00:05;;;;;;;6.47;3.28;;;15.10;99.90;;;;;;4993731;28;20121;-54
2023/07/22 05:02:32;;;;;;;7.88;3.65;;;15.20;99.90;;;;;;4993826;28;20031;-53
2023/07/22 05:04:57;;;;;;;8.65;4.50;;;15.20;99.90;;;;;;4993635;28;20030;-53
2023/07/22 05:07:23;;;;;;;6.20;3.13;;;15.20;99.90;;;;;;4994123;28;20035;-51
2023/07/22 05:09:49;;;;;;;6.60;3.15;;;15.20;99.90;;;;;;4994042;28;20034;-52
2023/07/22 05:12:15;;;;;;;8.25;3.78;;;15.20;99.90;;;;;;4993504;28;20045;-52
2023/07/22 05:14:41;;;;;;;7.60;3.67;;;15.20;99.90;;;;;;4993642;28;20350;-53
2023/07/22 05:17:06;;;;;;;6.30;3.20;;;15.20;99.90;;;;;;4994222;28;20109;-52
2023/07/22 05:19:32;;;;;;;8.10;3.33;;;15.30;99.90;;;;;;4994261;28;20038;-52
2023/07/22 05:21:57;;;;;;;6.10;3.55;;;15.20;99.90;;;;;;4993956;28;20114;-53
2023/07/22 05:24:23;;;;;;;7.47;3.33;;;15.20;99.90;;;;;;4993774;28;20122;-50
2023/07/22 05:26:49;;;;;;;8.18;3.55;;;15.20;99.90;;;;;;4993770;28;20034;-51
2023/07/22 05:29:14;;;;;;;8.80;3.55;;;15.20;99.90;;;;;;4993677;28;20072;-54
2023/07/22 05:31:41;;;;;;;9.05;3.63;;;15.20;99.90;;;;;;4993699;28;20489;-49
2023/07/22 05:34:06;;;;;;;8.70;3.55;;;15.20;99.90;;;;;;4992059;28;20030;-53
2023/07/22 05:36:32;;;;;;;7.63;3.28;;;15.20;99.90;;;;;;4993804;28;20030;-54
2023/07/22 05:38:57;;;;;;;8.00;3.90;;;15.30;99.90;;;;;;4993832;28;20027;-52
2023/07/22 05:41:23;;;;;;;7.15;3.05;;;15.30;99.90;;;;;;4993795;28;20031;-52
2023/07/22 05:43:49;;;;;;;8.18;3.20;;;15.40;99.90;;;;;;4993328;28;20026;-53
2023/07/22 05:46:14;;;;;;;6.97;3.05;;;15.40;99.90;;;;;;4993511;28;20033;-52
2023/07/22 05:48:40;;;;;;;14.77;4.53;;;15.60;99.90;;;;;;4992791;28;20037;-52
2023/07/22 05:51:05;;;;;;;7.80;3.47;;;15.60;99.90;;;;;;4993889;28;20034;-52
2023/07/22 05:53:33;;;;;;;7.63;3.67;;;15.80;99.90;;;;;;4992072;28;20082;-52
2023/07/22 05:55:58;;;;;;;7.70;3.47;;;15.80;99.90;;;;;;4993867;28;20398;-52
2023/07/22 05:58:24;;;;;;;7.40;3.70;;;15.90;99.90;;;;;;4993658;28;20022;-54
2023/07/22 06:00:51;;;;;;;8.10;3.80;;;15.90;99.90;;;;;;4993529;28;20564;-53
2023/07/22 06:03:17;;;;;;;8.88;3.55;;;16.00;99.90;;;;;;4993053;28;20038;-53
2023/07/22 06:05:43;;;;;;;8.40;3.63;;;16.00;99.90;;;;;;4993796;28;20382;-51
2023/07/22 06:08:08;;;;;;;10.57;4.38;;;16.10;99.90;;;;;;4992535;28;20109;-53
2023/07/22 06:10:34;;;;;;;19.58;9.35;;;16.10;99.90;;;;;;4993230;28;20026;-53
2023/07/22 06:13:00;;;;;;;16.75;6.40;;;16.30;99.90;;;;;;4992721;28;20034;-52
2023/07/22 06:15:26;;;;;;;10.85;5.47;;;16.40;99.90;;;;;;4993450;28;20084;-54
2023/07/22 06:17:52;;;;;;;9.73;4.15;;;16.50;99.90;;;;;;4992906;28;20050;-54
2023/07/22 06:20:18;;;;;;;12.18;4.15;;;16.60;99.90;;;;;;4993330;28;20266;-50
2023/07/22 06:22:43;;;;;;;7.68;3.60;;;16.60;99.90;;;;;;4993443;28;20027;-53
2023/07/22 06:25:09;;;;;;;10.45;3.47;;;16.70;99.90;;;;;;4992283;28;20049;-54
2023/07/22 06:27:37;;;;;;;6.25;3.33;;;16.80;99.90;;;;;;4993176;28;20497;-53
2023/07/22 06:30:03;;;;;;;10.60;4.15;;;16.90;99.90;;;;;;4993386;28;20072;-52
2023/07/22 06:32:29;;;;;;;9.07;4.00;;;16.90;99.90;;;;;;4992688;28;20045;-52
2023/07/22 06:34:56;;;;;;;9.27;3.50;;;17.10;99.90;;;;;;4993365;28;20034;-54
2023/07/22 06:37:23;;;;;;;9.50;4.32;;;17.20;99.90;;;;;;4993671;28;20034;-53
2023/07/22 06:39:49;;;;;;;10.40;4.30;;;17.30;99.90;;;;;;4994864;28;20034;-52
2023/07/22 06:42:14;;;;;;;9.05;4.63;;;17.50;99.90;;;;;;4996797;28;20435;-53
2023/07/22 06:44:40;;;;;;;9.10;3.85;;;17.50;99.90;;;;;;4995526;28;20037;-54
2023/07/22 06:47:06;;;;;;;9.40;4.43;;;17.50;99.90;;;;;;4996397;28;20040;-54
2023/07/22 06:49:32;;;;;;;8.88;4.65;;;17.60;99.90;;;;;;4995758;28;20049;-54
2023/07/22 06:51:58;;;;;;;11.20;4.55;;;17.60;99.90;;;;;;4996276;28;20030;-55
2023/07/22 06:54:23;;;;;;;12.07;5.57;;;17.80;99.90;;;;;;4996557;28;20112;-51
2023/07/22 06:56:49;;;;;;;11.75;4.45;;;17.80;99.90;;;;;;4996924;28;20034;-55
2023/07/22 06:59:14;;;;;;;10.20;4.80;;;17.80;99.90;;;;;;4996803;28;20066;-54
2023/07/22 07:01:41;;;;;;;11.27;4.45;;;17.70;99.90;;;;;;4996521;28;20030;-50
2023/07/22 07:04:06;;;;;;;11.98;4.82;;;17.70;99.90;;;;;;4997088;28;20034;-54
2023/07/22 07:06:32;;;;;;;10.38;4.50;;;17.60;99.90;;;;;;4996351;28;20039;-49
2023/07/22 07:09:01;;;;;;;25.92;12.23;;;17.60;99.90;;;;;;5000283;28;20038;-49
2023/07/22 07:11:28;;;;;;;21.23;10.98;;;17.70;99.90;;;;;;4997293;28;20022;-49
2023/07/22 07:13:54;;;;;;;11.15;5.63;;;17.70;99.90;;;;;;4998108;28;20039;-50
2023/07/22 07:16:24;;;;;;;10.50;4.70;;;17.70;99.90;;;;;;4997258;28;20057;-49
2023/07/22 07:18:51;;;;;;;17.73;7.82;;;17.80;99.90;;;;;;4997875;28;20398;-50
2023/07/22 07:21:17;;;;;;;9.57;4.97;;;17.80;99.90;;;;;;4996750;28;20049;-50
2023/07/22 07:23:43;;;;;;;13.02;4.97;;;17.90;99.90;;;;;;4996789;28;20034;-51
2023/07/22 07:26:09;;;;;;;9.35;4.65;;;18.00;99.90;;;;;;4997417;28;20085;-49
2023/07/22 07:28:35;;;;;;;9.82;5.05;;;18.20;99.90;;;;;;4995786;28;20474;-49
2023/07/22 07:31:00;;;;;;;11.57;5.32;;;18.30;99.90;;;;;;4997188;28;20037;-51
2023/07/22 07:33:26;;;;;;;11.75;5.43;;;18.20;99.90;;;;;;4996964;28;20042;-50
2023/07/22 07:35:51;;;;;;;10.68;5.03;;;18.30;99.90;;;;;;4995929;28;20129;-53
2023/07/22 07:38:17;;;;;;;8.90;4.00;;;18.30;99.90;;;;;;4995798;28;20030;-53
2023/07/22 07:40:43;;;;;;;15.27;5.60;;;18.40;99.90;;;;;;4996471;28;20042;-51
2023/07/22 07:43:08;;;;;;;11.85;5.53;;;18.40;99.90;;;;;;4995311;28;20026;-52
2023/07/22 07:45:38;;;;;;;10.40;4.80;;;18.50;99.90;;;;;;4995598;28;20037;-51
2023/07/22 07:48:04;;;;;;;12.30;5.43;;;18.40;99.90;;;;;;4996083;28;20710;-54
2023/07/22 07:50:29;;;;;;;10.20;4.88;;;18.40;99.90;;;;;;4995437;28;20037;-53
2023/07/22 07:52:55;;;;;;;12.75;5.53;;;18.50;99.90;;;;;;4994891;28;20394;-51
2023/07/22 07:55:20;;;;;;;11.05;5.53;;;18.40;99.90;;;;;;4994856;28;20037;-51
2023/07/22 07:57:46;;;;;;;11.25;4.45;;;18.50;99.90;;;;;;4994621;28;20038;-48
2023/07/22 08:00:12;;;;;;;11.25;5.22;;;18.60;99.90;;;;;;4996421;28;20062;-49
2023/07/22 08:02:38;;;;;;;8.98;4.50;;;18.60;99.90;;;;;;4995687;28;20018;-52
2023/07/22 08:05:04;;;;;;;11.57;5.85;;;18.60;99.90;;;;;;4995753;28;20109;-55
2023/07/22 08:07:30;;;;;;;11.43;4.43;;;18.70;99.90;;;;;;4994564;28;20045;-54
2023/07/22 08:09:57;;;;;;;9.18;4.80;;;18.80;99.90;;;;;;4995802;28;20031;-54
2023/07/22 08:12:23;;;;;;;7.53;4.47;;;18.80;99.90;;;;;;4995312;28;20046;-52
2023/07/22 08:14:48;;;;;;;10.18;4.85;;;18.70;99.90;;;;;;4994183;28;20128;-54
2023/07/22 08:17:14;;;;;;;10.07;4.07;;;18.70;99.90;;;;;;4995833;28;20038;-50
2023/07/22 08:19:40;;;;;;;6.28;3.85;;;18.80;99.90;;;;;;4994589;28;20530;-50
2023/07/22 08:22:06;;;;;;;9.27;4.45;;;18.90;99.90;;;;;;4995577;28;20042;-53
2023/07/22 08:24:32;;;;;;;9.95;3.92;;;19.00;99.90;;;;;;4995642;28;20027;-49
2023/07/22 08:26:58;;;;;;;8.93;4.50;;;19.00;99.90;;;;;;4996337;28;20089;-53
2023/07/22 08:29:24;;;;;;;8.90;4.60;;;18.90;99.90;;;;;;4994203;28;20026;-51
2023/07/22 08:31:50;;;;;;;8.50;4.75;;;19.10;99.90;;;;;;4995196;28;20092;-52
2023/07/22 08:34:16;;;;;;;10.25;4.40;;;19.20;99.90;;;;;;4994438;28;20022;-54
2023/07/22 08:36:42;;;;;;;8.75;4.28;;;19.40;99.90;;;;;;4994910;28;20522;-54
2023/07/22 08:39:07;;;;;;;9.43;5.28;;;19.60;99.90;;;;;;4995379;28;20073;-52
2023/07/22 08:41:34;;;;;;;7.93;4.00;;;19.80;99.90;;;;;;4994177;28;20396;-54
2023/07/22 08:44:01;;;;;;;9.00;4.30;;;19.80;99.90;;;;;;4994128;28;20080;-53
2023/07/22 08:46:33;;;;;;;9.30;4.25;;;19.90;99.80;;;;;;4994417;28;20026;-55
2023/07/22 08:49:00;;;;;;;7.85;4.18;;;20.00;99.50;;;;;;4994436;28;20022;-54
2023/07/22 08:51:29;;;;;;;8.20;4.43;;;20.00;99.50;;;;;;4994461;28;20034;-53
2023/07/22 08:53:59;;;;;;;8.15;4.07;;;20.00;99.20;;;;;;4994072;28;20462;-55
2023/07/22 08:56:25;;;;;;;6.00;3.15;;;20.20;98.90;;;;;;4994859;28;20035;-55
2023/07/22 08:58:52;;;;;;;6.70;3.58;;;20.30;98.40;;;;;;4994273;28;20037;-54
2023/07/22 09:01:18;;;;;;;10.52;5.30;;;20.40;98.00;;;;;;4993955;28;20038;-54
2023/07/22 09:03:44;;;;;;;5.95;3.20;;;20.40;97.90;;;;;;4993143;28;20118;-55
2023/07/22 09:06:11;;;;;;;7.90;3.50;;;20.40;97.60;;;;;;4994327;28;20541;-53
2023/07/22 09:08:38;;;;;;;9.70;3.63;;;20.40;97.30;;;;;;4993875;28;20026;-53
2023/07/22 09:11:04;;;;;;;7.00;3.72;;;20.40;97.20;;;;;;4993895;28;20038;-53
2023/07/22 09:13:30;;;;;;;7.22;3.90;;;20.40;97.40;;;;;;4992324;28;20042;-55
2023/07/22 09:15:59;;;;;;;8.57;4.72;;;20.40;97.70;;;;;;4993296;28;20359;-55
2023/07/22 09:18:25;;;;;;;7.00;3.53;;;20.50;97.90;;;;;;4994297;28;20030;-54
2023/07/22 09:20:51;;;;;;;6.65;3.92;;;20.60;97.30;;;;;;4993817;28;20494;-52
2023/07/22 09:23:17;;;;;;;6.03;3.33;;;20.70;97.30;;;;;;4993476;28;20019;-55
2023/07/22 09:25:43;;;;;;;6.43;2.90;;;20.70;97.10;;;;;;4993742;28;20088;-54
2023/07/22 09:28:09;;;;;;;8.43;4.88;;;20.80;96.70;;;;;;4994354;28;20029;-54
2023/07/22 09:30:38;;;;;;;5.93;3.08;;;20.80;97.20;;;;;;4994221;28;20034;-55
2023/07/22 09:33:05;;;;;;;;;;;21.00;96.80;;;;;;4992771;28;20041;-54
2023/07/22 09:35:57;;;;;;;7.20;3.25;;;21.20;96.00;;;;;;4994098;28;19910;-55
2023/07/22 09:38:24;;;;;;;6.20;2.72;;;21.30;95.50;;;;;;4992568;28;20093;-53
2023/07/22 09:40:50;;;;;;;5.93;2.83;;;21.10;95.80;;;;;;4993778;28;20034;-55
2023/07/22 09:43:16;;;;;;;7.68;3.97;;;21.20;96.00;;;;;;4993631;28;20036;-52
2023/07/22 09:45:42;;;;;;;6.18;2.72;;;21.30;96.30;;;;;;4993625;28;20026;-54
2023/07/22 09:48:09;;;;;;;7.15;2.72;;;21.30;96.00;;;;;;4993864;28;20085;-55
2023/07/22 09:50:36;;;;;;;6.63;2.67;;;21.40;95.60;;;;;;4993985;28;20030;-50
2023/07/22 09:53:03;;;;;;;7.32;2.70;;;21.20;95.30;;;;;;4993926;28;20069;-55
2023/07/22 09:55:31;;;;;;;5.50;2.97;;;21.10;95.80;;;;;;4993908;28;20285;-53
2023/07/22 09:58:02;;;;;;;6.40;2.40;;;21.20;96.00;;;;;;4993919;28;20079;-55
2023/07/22 10:00:33;;;;;;;5.05;2.50;;;21.20;95.70;;;;;;4993517;28;20038;-52
2023/07/22 10:03:01;;;;;;;5.13;2.50;;;21.10;95.50;;;;;;4992701;28;20463;-53
2023/07/22 10:05:28;;;;;;;4.30;2.20;;;21.20;96.10;;;;;;4993644;28;20026;-54
2023/07/22 10:07:58;;;;;;;5.35;2.45;;;21.30;96.30;;;;;;4993291;28;20026;-55
2023/07/22 10:10:37;;;;;;;5.68;2.38;;;21.30;96.30;;;;;;4993410;28;20045;-54
2023/07/22 10:13:04;;;;;;;4.50;2.60;;;21.30;95.70;;;;;;4992848;28;20038;-50
2023/07/22 10:15:33;;;;;;;4.88;2.50;;;21.40;96.20;;;;;;4995724;28;20459;-51
2023/07/22 10:17:59;;;;;;;6.60;3.40;;;21.50;95.50;;;;;;4997241;28;20042;-50
2023/07/22 10:20:25;;;;;;;4.57;2.25;;;21.50;95.20;;;;;;4997572;28;20040;-51
2023/07/22 10:22:51;;;;;;;4.75;2.55;;;21.50;94.90;;;;;;4997141;28;20109;-54
2023/07/22 10:25:18;;;;;;;4.15;1.98;;;21.50;95.00;;;;;;4997381;28;20026;-53
2023/07/22 10:27:44;;;;;;;3.35;1.85;;;21.50;94.80;;;;;;4997102;28;20117;-52
2023/07/22 10:30:12;;;;;;;3.40;2.08;;;21.50;94.10;;;;;;4995650;28;20116;-53
2023/07/22 10:32:40;;;;;;;4.40;2.40;;;21.50;94.30;;;;;;4996808;28;20403;-51
2023/07/22 10:35:22;;;;;;;9.02;4.97;;;21.60;94.10;;;;;;4997462;28;20026;-49
2023/07/22 10:37:48;;;;;;;10.30;5.07;;;21.60;94.30;;;;;;4997172;28;20065;-52
2023/07/22 10:40:27;;;;;;;8.13;4.60;;;21.50;93.70;;;;;;4996767;28;20065;-52
2023/07/22 10:42:57;;;;;;;7.78;3.88;;;21.60;93.50;;;;;;4996456;28;20062;-54
2023/07/22 10:45:48;;;;;;;6.70;3.35;;;21.50;93.50;;;;;;4995645;28;20069;-54
2023/07/22 10:48:14;;;;;;;3.92;2.05;;;21.60;93.40;;;;;;4996514;28;20058;-54
2023/07/22 10:50:49;;;;;;;4.60;2.58;;;21.70;93.70;;;;;;4997142;28;20031;-54
2023/07/22 10:53:29;;;;;;;4.32;1.80;;;22.00;93.10;;;;;;4996236;28;20030;-54
2023/07/22 10:56:13;;;;;;;8.55;4.07;;;22.00;92.70;;;;;;4996665;28;20026;-53
2023/07/22 10:58:44;;;;;;;6.82;3.55;;;22.10;92.60;;;;;;4997016;28;20038;-53
2023/07/22 11:01:28;;;;;;;3.92;1.90;;;22.20;92.60;;;;;;4995891;28;20360;-52
2023/07/22 11:04:05;;;;;;;4.20;2.22;;;22.30;92.10;;;;;;4996030;28;20057;-54
2023/07/22 11:06:31;;;;;;;5.30;2.50;;;22.30;91.30;;;;;;4996317;28;20033;-54
2023/07/22 11:08:56;;;;;;;3.95;2.42;;;22.20;91.50;;;;;;4996307;28;20031;-50
2023/07/22 11:11:44;;;;;;;3.55;2.00;;;22.10;92.00;;;;;;4996406;28;20034;-52
2023/07/22 11:14:17;;;;;;;4.15;1.75;;;22.20;92.30;;;;;;4996040;28;20117;-53
2023/07/22 11:16:45;;;;;;;3.15;1.52;;;22.20;92.00;;;;;;4994863;28;20522;-54
2023/07/22 11:19:14;;;;;;;2.13;1.42;;;22.40;91.20;;;;;;4995836;28;20030;-54
2023/07/22 11:21:39;;;;;;;3.22;1.75;;;22.30;91.50;;;;;;4995834;28;20046;-53
2023/07/22 11:24:07;;;;;;;3.15;1.73;;;22.20;91.60;;;;;;4995172;28;20034;-53
2023/07/22 11:26:33;;;;;;;5.18;3.10;;;22.20;92.10;;;;;;4995486;28;20403;-54
2023/07/22 11:29:03;;;;;;;3.40;1.65;;;22.30;91.80;;;;;;4995575;28;20030;-54
2023/07/22 11:31:32;;;;;;;2.80;1.52;;;22.50;91.50;;;;;;4995887;28;20034;-53
2023/07/22 11:33:58;;;;;;;4.72;1.90;;;22.40;91.20;;;;;;4995635;28;20030;-52
2023/07/22 11:36:28;;;;;;;2.92;1.92;;;22.40;90.80;;;;;;4994912;28;20060;-50
2023/07/22 11:38:56;;;;;;;4.57;2.05;;;22.40;91.50;;;;;;4995369;28;20395;-50
2023/07/22 11:41:24;;;;;;;6.38;1.85;;;22.30;91.20;;;;;;4995923;28;20031;-51
2023/07/22 11:43:50;;;;;;;4.45;2.10;;;22.40;91.50;;;;;;4995562;28;20050;-53
2023/07/22 11:46:16;;;;;;;3.75;2.20;;;22.40;91.00;;;;;;4995214;28;20312;-54
2023/07/22 11:48:53;;;;;;;4.00;1.80;;;22.30;91.60;;;;;;4995318;28;20126;-54
2023/07/22 11:51:20;;;;;;;3.15;1.70;;;22.50;91.10;;;;;;4995407;28;20034;-54
2023/07/22 11:53:50;;;;;;;4.22;1.77;;;22.70;89.70;;;;;;4995100;28;20034;-54
2023/07/22 11:56:28;;;;;;;2.47;1.40;;;22.80;89.50;;;;;;4995196;28;20034;-54
2023/07/22 11:58:57;;;;;;;4.15;1.83;;;22.80;89.20;;;;;;4994954;28;20107;-53
2023/07/22 12:01:23;;;;;;;2.53;1.38;;;22.70;90.10;;;;;;4994332;28;20034;-53
2023/07/22 12:03:49;;;;;;;3.38;1.73;;;22.70;88.70;;;;;;4994175;28;20049;-54
2023/07/22 12:06:15;;;;;;;3.67;1.90;;;22.70;89.60;;;;;;4994177;28;20037;-54
2023/07/22 12:08:46;;;;;;;4.68;2.15;;;22.80;89.30;;;;;;4993850;28;20062;-50
2023/07/22 12:11:18;;;;;;;3.63;1.58;;;22.80;87.70;;;;;;4994947;28;20070;-54
2023/07/22 12:13:46;;;;;;;3.00;1.48;;;22.80;88.40;;;;;;4994918;28;20027;-53
2023/07/22 12:16:13;;;;;;;4.82;1.30;;;22.90;88.50;;;;;;4993558;28;20064;-52
2023/07/22 12:18:46;;;;;;;2.20;1.20;;;22.90;89.10;;;;;;4995034;28;20038;-54
2023/07/22 12:21:12;;;;;;;3.53;1.48;;;23.00;88.80;;;;;;4995003;28;20101;-53
2023/07/22 12:23:38;;;;;;;8.32;4.40;;;23.00;87.00;;;;;;4994380;28;20094;-54
2023/07/22 12:26:05;;;;;;;4.28;1.90;;;23.00;88.00;;;;;;4994439;28;20066;-54
2023/07/22 12:28:30;;;;;;;3.17;1.40;;;23.10;87.60;;;;;;4994175;28;20045;-53
2023/07/22 12:30:57;;;;;;;6.05;3.00;;;23.10;87.00;;;;;;4993666;28;20494;-54
2023/07/22 12:33:26;;;;;;;3.70;1.75;;;23.10;88.20;;;;;;4993757;28;20042;-53
2023/07/22 12:35:56;;;;;;;3.00;1.50;;;23.00;87.30;;;;;;4992847;28;20026;-53
2023/07/22 12:38:21;;;;;;;5.03;2.70;;;22.90;89.60;;;;;;4993608;28;20028;-54
2023/07/22 12:40:47;;;;;;;3.22;1.63;;;22.90;88.60;;;;;;4993774;28;20542;-50
2023/07/22 12:43:13;;;;;;;3.45;1.98;;;23.00;87.70;;;;;;4991999;28;20045;-52
2023/07/22 12:45:38;;;;;;;2.88;1.85;;;23.00;87.50;;;;;;4993540;28;20440;-54